sensor_id;sensor_type;location;lat;lon;timestamp;P1;durP1;ratioP1;P2;durP2;ratioP2
6561;SDS011;3314;50.890;4.722;2023-03-14T00:01:20;7.0;;;0.7;;
6561;SDS011;3314;50.890;4.722;2023-03-14T00:03:20;9.3;;;1.1;;
6561;SDS011;3314;50.890;4.722;2023-03-14T00:05:20;8.5;;;0.9;;
6561;SDS011;3314;50.890;4.722;2023-03-14T00:07:19;9.8;;;1.1;;
6561;SDS011;3314;50.890;4.722;2023-03-14T00:09:19;8.9;;;0.8;;
6561;SDS011;3314;50.890;4.722;2023-03-14T00:11:19;9.4;;;1.2;;
6561;SDS011;3314;50.890;4.722;2023-03-14T00:13:19;8.8;;;1.3;;
6561;SDS011;3314;50.890;4.722;2023-03-14T00:15:19;8.5;;;0.8;;
6561;SDS011;3314;50.890;4.722;2023-03-14T00:17:19;8.8;;;1.4;;
6561;SDS011;3314;50.890;4.722;2023-03-14T00:19:18;12.6;;;1.0;;
6561;SDS011;3314;50.890;4.722;2023-03-14T00:21:18;12.1;;;1.0;;
6561;SDS011;3314;50.890;4.722;2023-03-14T00:23:18;6.1;;;0.7;;
6561;SDS011;3314;50.890;4.722;2023-03-14T00:25:18;7.5;;;0.8;;
6561;SDS011;3314;50.890;4.722;2023-03-14T00:27:17;14.7;;;1.6;;
6561;SDS011;3314;50.890;4.722;2023-03-14T00:29:17;8.7;;;0.9;;
6561;SDS011;3314;50.890;4.722;2023-03-14T00:31:17;8.0;;;1.2;;
6561;SDS011;3314;50.890;4.722;2023-03-14T00:33:16;8.5;;;1.3;;
6561;SDS011;3314;50.890;4.722;2023-03-14T00:35:16;11.7;;;1.1;;
6561;SDS011;3314;50.890;4.722;2023-03-14T00:37:16;10.9;;;1.3;;
6561;SDS011;3314;50.890;4.722;2023-03-14T00:39:15;10.3;;;1.8;;
6561;SDS011;3314;50.890;4.722;2023-03-14T00:41:16;16.4;;;1.5;;
6561;SDS011;3314;50.890;4.722;2023-03-14T00:43:16;9.4;;;1.5;;
6561;SDS011;3314;50.890;4.722;2023-03-14T00:45:16;11.1;;;1.1;;
6561;SDS011;3314;50.890;4.722;2023-03-14T00:47:16;7.8;;;1.2;;
6561;SDS011;3314;50.890;4.722;2023-03-14T00:49:15;9.8;;;1.0;;
6561;SDS011;3314;50.890;4.722;2023-03-14T00:51:15;13.4;;;1.3;;
6561;SDS011;3314;50.890;4.722;2023-03-14T00:53:15;8.9;;;1.5;;
6561;SDS011;3314;50.890;4.722;2023-03-14T00:55:14;11.6;;;1.4;;
6561;SDS011;3314;50.890;4.722;2023-03-14T00:57:14;8.6;;;1.7;;
6561;SDS011;3314;50.890;4.722;2023-03-14T00:59:15;7.6;;;1.2;;
6561;SDS011;3314;50.890;4.722;2023-03-14T01:01:16;10.4;;;1.3;;
6561;SDS011;3314;50.890;4.722;2023-03-14T01:03:16;13.4;;;1.1;;
6561;SDS011;3314;50.890;4.722;2023-03-14T01:05:16;10.9;;;1.3;;
6561;SDS011;3314;50.890;4.722;2023-03-14T01:07:15;9.8;;;1.4;;
6561;SDS011;3314;50.890;4.722;2023-03-14T01:09:18;11.6;;;1.3;;
6561;SDS011;3314;50.890;4.722;2023-03-14T01:11:18;10.7;;;1.0;;
6561;SDS011;3314;50.890;4.722;2023-03-14T01:13:18;9.3;;;1.7;;
6561;SDS011;3314;50.890;4.722;2023-03-14T01:15:18;9.5;;;1.3;;
6561;SDS011;3314;50.890;4.722;2023-03-14T01:17:18;11.1;;;1.3;;
6561;SDS011;3314;50.890;4.722;2023-03-14T01:19:18;10.3;;;1.5;;
6561;SDS011;3314;50.890;4.722;2023-03-14T01:21:18;13.6;;;1.0;;
6561;SDS011;3314;50.890;4.722;2023-03-14T01:23:07;13.1;;;1.3;;
6561;SDS011;3314;50.890;4.722;2023-03-14T01:25:13;13.8;;;1.4;;
6561;SDS011;3314;50.890;4.722;2023-03-14T01:27:13;12.7;;;1.5;;
6561;SDS011;3314;50.890;4.722;2023-03-14T01:29:12;12.7;;;1.5;;
6561;SDS011;3314;50.890;4.722;2023-03-14T01:31:15;9.9;;;1.6;;
6561;SDS011;3314;50.890;4.722;2023-03-14T01:33:15;10.6;;;1.6;;
6561;SDS011;3314;50.890;4.722;2023-03-14T01:35:15;10.5;;;1.3;;
6561;SDS011;3314;50.890;4.722;2023-03-14T01:37:14;8.5;;;1.4;;
6561;SDS011;3314;50.890;4.722;2023-03-14T01:39:14;15.1;;;1.6;;
6561;SDS011;3314;50.890;4.722;2023-03-14T01:41:15;10.5;;;1.2;;
6561;SDS011;3314;50.890;4.722;2023-03-14T01:43:06;17.8;;;1.9;;
6561;SDS011;3314;50.890;4.722;2023-03-14T01:45:53;9.8;;;1.4;;
6561;SDS011;3314;50.890;4.722;2023-03-14T01:47:06;10.6;;;1.9;;
6561;SDS011;3314;50.890;4.722;2023-03-14T01:49:08;9.2;;;1.1;;
6561;SDS011;3314;50.890;4.722;2023-03-14T01:51:11;10.3;;;2.1;;
6561;SDS011;3314;50.890;4.722;2023-03-14T01:53:12;11.2;;;1.5;;
6561;SDS011;3314;50.890;4.722;2023-03-14T01:55:12;10.3;;;1.1;;
6561;SDS011;3314;50.890;4.722;2023-03-14T01:57:03;12.3;;;1.7;;
6561;SDS011;3314;50.890;4.722;2023-03-14T01:59:04;10.6;;;1.0;;
6561;SDS011;3314;50.890;4.722;2023-03-14T02:01:05;8.1;;;1.4;;
6561;SDS011;3314;50.890;4.722;2023-03-14T02:03:06;9.8;;;1.1;;
6561;SDS011;3314;50.890;4.722;2023-03-14T02:05:08;13.9;;;1.7;;
6561;SDS011;3314;50.890;4.722;2023-03-14T02:07:10;9.6;;;1.2;;
6561;SDS011;3314;50.890;4.722;2023-03-14T02:09:00;12.0;;;1.7;;
6561;SDS011;3314;50.890;4.722;2023-03-14T02:11:00;9.9;;;1.2;;
6561;SDS011;3314;50.890;4.722;2023-03-14T02:13:01;7.1;;;0.9;;
6561;SDS011;3314;50.890;4.722;2023-03-14T02:15:02;10.4;;;1.6;;
6561;SDS011;3314;50.890;4.722;2023-03-14T02:17:03;10.1;;;1.2;;
6561;SDS011;3314;50.890;4.722;2023-03-14T02:19:04;10.2;;;0.9;;
6561;SDS011;3314;50.890;4.722;2023-03-14T02:21:05;9.3;;;1.4;;
6561;SDS011;3314;50.890;4.722;2023-03-14T02:23:08;6.7;;;0.8;;
6561;SDS011;3314;50.890;4.722;2023-03-14T02:25:08;14.0;;;1.5;;
6561;SDS011;3314;50.890;4.722;2023-03-14T02:27:01;11.0;;;1.7;;
6561;SDS011;3314;50.890;4.722;2023-03-14T02:29:01;8.8;;;1.0;;
6561;SDS011;3314;50.890;4.722;2023-03-14T02:31:00;6.6;;;0.7;;
6561;SDS011;3314;50.890;4.722;2023-03-14T02:33:01;9.3;;;1.2;;
6561;SDS011;3314;50.890;4.722;2023-03-14T02:35:03;11.9;;;1.4;;
6561;SDS011;3314;50.890;4.722;2023-03-14T02:37:03;7.8;;;1.0;;
6561;SDS011;3314;50.890;4.722;2023-03-14T02:39:06;13.6;;;1.2;;
6561;SDS011;3314;50.890;4.722;2023-03-14T02:40:56;6.6;;;0.8;;
6561;SDS011;3314;50.890;4.722;2023-03-14T02:42:55;5.2;;;0.6;;
6561;SDS011;3314;50.890;4.722;2023-03-14T02:44:58;6.9;;;0.8;;
6561;SDS011;3314;50.890;4.722;2023-03-14T02:46:59;7.6;;;0.7;;
6561;SDS011;3314;50.890;4.722;2023-03-14T02:49:00;6.0;;;0.7;;
6561;SDS011;3314;50.890;4.722;2023-03-14T02:51:01;6.5;;;0.6;;
6561;SDS011;3314;50.890;4.722;2023-03-14T02:53:01;7.9;;;1.3;;
6561;SDS011;3314;50.890;4.722;2023-03-14T02:55:00;7.4;;;1.0;;
6561;SDS011;3314;50.890;4.722;2023-03-14T02:57:00;8.3;;;1.0;;
6561;SDS011;3314;50.890;4.722;2023-03-14T02:59:02;7.4;;;1.1;;
6561;SDS011;3314;50.890;4.722;2023-03-14T03:01:02;5.3;;;0.6;;
6561;SDS011;3314;50.890;4.722;2023-03-14T03:03:02;6.3;;;0.8;;
6561;SDS011;3314;50.890;4.722;2023-03-14T03:05:01;6.1;;;0.7;;
6561;SDS011;3314;50.890;4.722;2023-03-14T03:07:01;9.5;;;0.9;;
6561;SDS011;3314;50.890;4.722;2023-03-14T03:09:01;10.0;;;0.8;;
6561;SDS011;3314;50.890;4.722;2023-03-14T03:11:01;6.5;;;0.7;;
6561;SDS011;3314;50.890;4.722;2023-03-14T03:13:00;6.7;;;0.8;;
6561;SDS011;3314;50.890;4.722;2023-03-14T03:15:00;8.8;;;0.8;;
6561;SDS011;3314;50.890;4.722;2023-03-14T03:16:59;6.9;;;0.8;;
6561;SDS011;3314;50.890;4.722;2023-03-14T03:18:59;6.8;;;0.7;;
6561;SDS011;3314;50.890;4.722;2023-03-14T03:21:04;6.4;;;0.8;;
6561;SDS011;3314;50.890;4.722;2023-03-14T03:22:52;9.6;;;1.0;;
6561;SDS011;3314;50.890;4.722;2023-03-14T03:24:51;5.8;;;0.8;;
6561;SDS011;3314;50.890;4.722;2023-03-14T03:26:51;7.1;;;0.9;;
6561;SDS011;3314;50.890;4.722;2023-03-14T03:28:51;6.5;;;1.0;;
6561;SDS011;3314;50.890;4.722;2023-03-14T03:30:51;6.8;;;1.0;;
6561;SDS011;3314;50.890;4.722;2023-03-14T03:32:50;5.5;;;1.2;;
6561;SDS011;3314;50.890;4.722;2023-03-14T03:34:50;7.7;;;0.8;;
6561;SDS011;3314;50.890;4.722;2023-03-14T03:36:50;7.5;;;1.1;;
6561;SDS011;3314;50.890;4.722;2023-03-14T03:38:50;8.9;;;1.5;;
6561;SDS011;3314;50.890;4.722;2023-03-14T03:40:49;7.9;;;1.1;;
6561;SDS011;3314;50.890;4.722;2023-03-14T03:42:49;8.4;;;1.1;;
6561;SDS011;3314;50.890;4.722;2023-03-14T03:44:50;7.6;;;1.8;;
6561;SDS011;3314;50.890;4.722;2023-03-14T03:46:49;10.2;;;1.9;;
6561;SDS011;3314;50.890;4.722;2023-03-14T03:48:53;9.3;;;1.0;;
6561;SDS011;3314;50.890;4.722;2023-03-14T03:50:55;9.9;;;1.2;;
6561;SDS011;3314;50.890;4.722;2023-03-14T03:52:45;10.1;;;1.4;;
6561;SDS011;3314;50.890;4.722;2023-03-14T03:54:45;8.3;;;1.6;;
6561;SDS011;3314;50.890;4.722;2023-03-14T03:56:44;12.9;;;1.4;;
6561;SDS011;3314;50.890;4.722;2023-03-14T03:58:44;11.3;;;1.4;;
6561;SDS011;3314;50.890;4.722;2023-03-14T04:00:44;15.1;;;1.4;;
6561;SDS011;3314;50.890;4.722;2023-03-14T04:02:43;11.9;;;1.2;;
6561;SDS011;3314;50.890;4.722;2023-03-14T04:04:43;8.8;;;0.9;;
6561;SDS011;3314;50.890;4.722;2023-03-14T04:06:43;8.3;;;1.3;;
6561;SDS011;3314;50.890;4.722;2023-03-14T04:08:43;8.4;;;1.7;;
6561;SDS011;3314;50.890;4.722;2023-03-14T04:10:43;11.8;;;1.6;;
6561;SDS011;3314;50.890;4.722;2023-03-14T04:12:43;10.6;;;1.3;;
6561;SDS011;3314;50.890;4.722;2023-03-14T04:14:42;7.6;;;1.2;;
6561;SDS011;3314;50.890;4.722;2023-03-14T04:16:42;14.5;;;1.6;;
6561;SDS011;3314;50.890;4.722;2023-03-14T04:18:42;11.3;;;1.2;;
6561;SDS011;3314;50.890;4.722;2023-03-14T04:20:41;6.7;;;0.8;;
6561;SDS011;3314;50.890;4.722;2023-03-14T04:22:41;8.7;;;1.6;;
6561;SDS011;3314;50.890;4.722;2023-03-14T04:24:41;6.6;;;1.2;;
6561;SDS011;3314;50.890;4.722;2023-03-14T04:26:40;10.6;;;1.2;;
6561;SDS011;3314;50.890;4.722;2023-03-14T04:28:40;9.7;;;1.6;;
6561;SDS011;3314;50.890;4.722;2023-03-14T04:30:40;11.8;;;1.8;;
6561;SDS011;3314;50.890;4.722;2023-03-14T04:32:39;7.3;;;1.1;;
6561;SDS011;3314;50.890;4.722;2023-03-14T04:34:39;7.3;;;1.1;;
6561;SDS011;3314;50.890;4.722;2023-03-14T04:36:39;6.8;;;1.1;;
6561;SDS011;3314;50.890;4.722;2023-03-14T04:38:38;7.2;;;1.3;;
6561;SDS011;3314;50.890;4.722;2023-03-14T04:40:39;9.4;;;1.6;;
6561;SDS011;3314;50.890;4.722;2023-03-14T04:42:39;7.8;;;1.4;;
6561;SDS011;3314;50.890;4.722;2023-03-14T04:44:38;8.4;;;1.4;;
6561;SDS011;3314;50.890;4.722;2023-03-14T04:46:38;10.9;;;1.2;;
6561;SDS011;3314;50.890;4.722;2023-03-14T04:48:38;8.5;;;1.4;;
6561;SDS011;3314;50.890;4.722;2023-03-14T04:50:38;5.1;;;1.0;;
6561;SDS011;3314;50.890;4.722;2023-03-14T04:52:38;7.1;;;0.9;;
6561;SDS011;3314;50.890;4.722;2023-03-14T04:54:37;10.2;;;1.1;;
6561;SDS011;3314;50.890;4.722;2023-03-14T04:56:37;9.7;;;1.1;;
6561;SDS011;3314;50.890;4.722;2023-03-14T04:58:37;10.1;;;0.9;;
6561;SDS011;3314;50.890;4.722;2023-03-14T05:00:36;8.5;;;0.8;;
6561;SDS011;3314;50.890;4.722;2023-03-14T05:02:36;7.9;;;1.1;;
6561;SDS011;3314;50.890;4.722;2023-03-14T05:04:36;8.1;;;1.4;;
6561;SDS011;3314;50.890;4.722;2023-03-14T05:06:36;6.5;;;0.9;;
6561;SDS011;3314;50.890;4.722;2023-03-14T05:08:35;5.6;;;1.1;;
6561;SDS011;3314;50.890;4.722;2023-03-14T05:10:35;7.2;;;1.4;;
6561;SDS011;3314;50.890;4.722;2023-03-14T05:12:35;9.1;;;1.3;;
6561;SDS011;3314;50.890;4.722;2023-03-14T05:14:34;8.2;;;0.9;;
6561;SDS011;3314;50.890;4.722;2023-03-14T05:16:34;7.8;;;1.0;;
6561;SDS011;3314;50.890;4.722;2023-03-14T05:18:34;6.3;;;0.7;;
6561;SDS011;3314;50.890;4.722;2023-03-14T05:20:33;8.1;;;1.0;;
6561;SDS011;3314;50.890;4.722;2023-03-14T05:22:33;9.3;;;1.5;;
6561;SDS011;3314;50.890;4.722;2023-03-14T05:24:33;6.8;;;1.2;;
6561;SDS011;3314;50.890;4.722;2023-03-14T05:26:32;7.5;;;1.3;;
6561;SDS011;3314;50.890;4.722;2023-03-14T05:28:32;6.4;;;1.1;;
6561;SDS011;3314;50.890;4.722;2023-03-14T05:30:32;9.1;;;1.3;;
6561;SDS011;3314;50.890;4.722;2023-03-14T05:32:32;10.3;;;1.9;;
6561;SDS011;3314;50.890;4.722;2023-03-14T05:34:32;8.8;;;1.7;;
6561;SDS011;3314;50.890;4.722;2023-03-14T05:36:31;9.6;;;1.8;;
6561;SDS011;3314;50.890;4.722;2023-03-14T05:38:31;8.1;;;1.6;;
6561;SDS011;3314;50.890;4.722;2023-03-14T05:40:31;7.6;;;1.3;;
6561;SDS011;3314;50.890;4.722;2023-03-14T05:42:30;8.2;;;1.5;;
6561;SDS011;3314;50.890;4.722;2023-03-14T05:44:30;8.1;;;1.5;;
6561;SDS011;3314;50.890;4.722;2023-03-14T05:46:31;7.5;;;1.8;;
6561;SDS011;3314;50.890;4.722;2023-03-14T05:48:30;9.3;;;1.6;;
6561;SDS011;3314;50.890;4.722;2023-03-14T05:50:30;9.6;;;1.3;;
6561;SDS011;3314;50.890;4.722;2023-03-14T05:52:30;6.4;;;1.5;;
6561;SDS011;3314;50.890;4.722;2023-03-14T05:54:29;6.9;;;1.4;;
6561;SDS011;3314;50.890;4.722;2023-03-14T05:56:29;6.8;;;0.9;;
6561;SDS011;3314;50.890;4.722;2023-03-14T05:58:29;7.6;;;1.3;;
6561;SDS011;3314;50.890;4.722;2023-03-14T06:00:28;6.6;;;1.0;;
6561;SDS011;3314;50.890;4.722;2023-03-14T06:02:28;6.1;;;1.0;;
6561;SDS011;3314;50.890;4.722;2023-03-14T06:04:28;6.8;;;0.8;;
6561;SDS011;3314;50.890;4.722;2023-03-14T06:06:27;5.9;;;0.9;;
6561;SDS011;3314;50.890;4.722;2023-03-14T06:08:27;9.5;;;1.7;;
6561;SDS011;3314;50.890;4.722;2023-03-14T06:10:27;7.8;;;1.6;;
6561;SDS011;3314;50.890;4.722;2023-03-14T06:12:27;7.4;;;1.8;;
6561;SDS011;3314;50.890;4.722;2023-03-14T06:14:26;9.2;;;1.8;;
6561;SDS011;3314;50.890;4.722;2023-03-14T06:16:26;6.8;;;1.6;;
6561;SDS011;3314;50.890;4.722;2023-03-14T06:18:26;8.4;;;1.6;;
6561;SDS011;3314;50.890;4.722;2023-03-14T06:20:25;7.1;;;1.2;;
6561;SDS011;3314;50.890;4.722;2023-03-14T06:22:25;6.9;;;1.6;;
6561;SDS011;3314;50.890;4.722;2023-03-14T06:24:25;9.1;;;1.7;;
6561;SDS011;3314;50.890;4.722;2023-03-14T06:26:24;7.7;;;1.4;;
6561;SDS011;3314;50.890;4.722;2023-03-14T06:28:24;7.1;;;1.9;;
6561;SDS011;3314;50.890;4.722;2023-03-14T06:32:25;7.3;;;1.7;;
6561;SDS011;3314;50.890;4.722;2023-03-14T06:34:25;7.3;;;2.0;;
6561;SDS011;3314;50.890;4.722;2023-03-14T06:36:24;7.8;;;2.0;;
6561;SDS011;3314;50.890;4.722;2023-03-14T06:38:24;7.3;;;2.1;;
6561;SDS011;3314;50.890;4.722;2023-03-14T06:40:24;9.8;;;2.4;;
6561;SDS011;3314;50.890;4.722;2023-03-14T06:42:23;10.5;;;1.9;;
6561;SDS011;3314;50.890;4.722;2023-03-14T06:44:23;6.7;;;1.7;;
6561;SDS011;3314;50.890;4.722;2023-03-14T06:46:23;7.0;;;1.9;;
6561;SDS011;3314;50.890;4.722;2023-03-14T06:48:22;7.5;;;2.2;;
6561;SDS011;3314;50.890;4.722;2023-03-14T06:50:23;8.0;;;1.9;;
6561;SDS011;3314;50.890;4.722;2023-03-14T06:52:23;7.4;;;1.6;;
6561;SDS011;3314;50.890;4.722;2023-03-14T06:54:22;9.5;;;1.8;;
6561;SDS011;3314;50.890;4.722;2023-03-14T06:56:22;8.3;;;1.7;;
6561;SDS011;3314;50.890;4.722;2023-03-14T06:58:21;7.1;;;1.7;;
6561;SDS011;3314;50.890;4.722;2023-03-14T07:00:22;6.1;;;1.3;;
6561;SDS011;3314;50.890;4.722;2023-03-14T07:02:22;7.7;;;2.0;;
6561;SDS011;3314;50.890;4.722;2023-03-14T07:04:23;7.7;;;1.2;;
6561;SDS011;3314;50.890;4.722;2023-03-14T07:06:23;6.6;;;1.3;;
6561;SDS011;3314;50.890;4.722;2023-03-14T07:08:23;6.5;;;1.2;;
6561;SDS011;3314;50.890;4.722;2023-03-14T07:10:22;7.0;;;1.0;;
6561;SDS011;3314;50.890;4.722;2023-03-14T07:12:22;7.5;;;1.4;;
6561;SDS011;3314;50.890;4.722;2023-03-14T07:14:22;9.1;;;1.1;;
6561;SDS011;3314;50.890;4.722;2023-03-14T07:16:21;5.0;;;0.7;;
6561;SDS011;3314;50.890;4.722;2023-03-14T07:18:21;4.7;;;0.6;;
6561;SDS011;3314;50.890;4.722;2023-03-14T07:20:21;6.9;;;0.8;;
6561;SDS011;3314;50.890;4.722;2023-03-14T07:22:21;4.9;;;0.7;;
6561;SDS011;3314;50.890;4.722;2023-03-14T07:24:20;7.0;;;1.2;;
6561;SDS011;3314;50.890;4.722;2023-03-14T07:26:20;6.2;;;0.7;;
6561;SDS011;3314;50.890;4.722;2023-03-14T07:28:20;8.2;;;0.9;;
6561;SDS011;3314;50.890;4.722;2023-03-14T07:30:19;6.2;;;0.7;;
6561;SDS011;3314;50.890;4.722;2023-03-14T07:32:19;6.5;;;1.1;;
6561;SDS011;3314;50.890;4.722;2023-03-14T07:34:19;8.7;;;0.7;;
6561;SDS011;3314;50.890;4.722;2023-03-14T07:36:19;5.2;;;0.8;;
6561;SDS011;3314;50.890;4.722;2023-03-14T07:38:19;5.2;;;0.7;;
6561;SDS011;3314;50.890;4.722;2023-03-14T07:40:19;4.8;;;0.6;;
6561;SDS011;3314;50.890;4.722;2023-03-14T07:42:18;9.3;;;0.9;;
6561;SDS011;3314;50.890;4.722;2023-03-14T07:44:18;5.1;;;0.8;;
6561;SDS011;3314;50.890;4.722;2023-03-14T07:46:18;5.2;;;0.7;;
6561;SDS011;3314;50.890;4.722;2023-03-14T07:48:18;5.3;;;1.0;;
6561;SDS011;3314;50.890;4.722;2023-03-14T07:50:18;4.9;;;0.6;;
6561;SDS011;3314;50.890;4.722;2023-03-14T07:52:17;5.3;;;0.9;;
6561;SDS011;3314;50.890;4.722;2023-03-14T07:54:17;8.5;;;0.8;;
6561;SDS011;3314;50.890;4.722;2023-03-14T07:56:17;5.7;;;1.2;;
6561;SDS011;3314;50.890;4.722;2023-03-14T07:58:16;6.1;;;1.0;;
6561;SDS011;3314;50.890;4.722;2023-03-14T08:00:16;8.1;;;0.7;;
6561;SDS011;3314;50.890;4.722;2023-03-14T08:02:11;6.4;;;1.0;;
6561;SDS011;3314;50.890;4.722;2023-03-14T08:04:11;8.2;;;1.0;;
6561;SDS011;3314;50.890;4.722;2023-03-14T08:06:11;8.4;;;1.0;;
6561;SDS011;3314;50.890;4.722;2023-03-14T08:08:10;6.6;;;1.1;;
6561;SDS011;3314;50.890;4.722;2023-03-14T08:10:10;5.1;;;0.7;;
6561;SDS011;3314;50.890;4.722;2023-03-14T08:12:10;6.5;;;1.0;;
6561;SDS011;3314;50.890;4.722;2023-03-14T08:14:11;7.6;;;0.9;;
6561;SDS011;3314;50.890;4.722;2023-03-14T08:16:11;6.1;;;0.9;;
6561;SDS011;3314;50.890;4.722;2023-03-14T08:18:10;7.2;;;0.9;;
6561;SDS011;3314;50.890;4.722;2023-03-14T08:20:12;5.8;;;1.1;;
6561;SDS011;3314;50.890;4.722;2023-03-14T08:22:12;9.9;;;1.8;;
6561;SDS011;3314;50.890;4.722;2023-03-14T08:24:02;6.5;;;1.1;;
6561;SDS011;3314;50.890;4.722;2023-03-14T08:26:02;9.3;;;1.6;;
6561;SDS011;3314;50.890;4.722;2023-03-14T08:28:02;8.4;;;1.4;;
6561;SDS011;3314;50.890;4.722;2023-03-14T08:30:02;7.1;;;1.3;;
6561;SDS011;3314;50.890;4.722;2023-03-14T08:32:01;7.7;;;1.7;;
6561;SDS011;3314;50.890;4.722;2023-03-14T08:34:02;6.4;;;1.6;;
6561;SDS011;3314;50.890;4.722;2023-03-14T08:36:02;8.1;;;2.7;;
6561;SDS011;3314;50.890;4.722;2023-03-14T08:38:02;9.0;;;2.0;;
6561;SDS011;3314;50.890;4.722;2023-03-14T08:40:06;10.1;;;2.4;;
6561;SDS011;3314;50.890;4.722;2023-03-14T08:42:06;8.1;;;2.2;;
6561;SDS011;3314;50.890;4.722;2023-03-14T08:44:06;10.2;;;2.3;;
6561;SDS011;3314;50.890;4.722;2023-03-14T08:46:06;10.2;;;2.3;;
6561;SDS011;3314;50.890;4.722;2023-03-14T08:48:05;8.1;;;1.4;;
6561;SDS011;3314;50.890;4.722;2023-03-14T08:50:06;7.4;;;1.8;;
6561;SDS011;3314;50.890;4.722;2023-03-14T08:52:06;8.9;;;1.6;;
6561;SDS011;3314;50.890;4.722;2023-03-14T08:54:05;8.7;;;1.6;;
6561;SDS011;3314;50.890;4.722;2023-03-14T08:56:06;8.1;;;1.7;;
6561;SDS011;3314;50.890;4.722;2023-03-14T08:57:56;8.9;;;1.6;;
6561;SDS011;3314;50.890;4.722;2023-03-14T08:59:56;6.2;;;1.4;;
6561;SDS011;3314;50.890;4.722;2023-03-14T09:01:56;8.0;;;1.6;;
6561;SDS011;3314;50.890;4.722;2023-03-14T09:03:55;6.6;;;1.4;;
6561;SDS011;3314;50.890;4.722;2023-03-14T09:05:55;9.2;;;1.2;;
6561;SDS011;3314;50.890;4.722;2023-03-14T09:07:55;6.0;;;1.0;;
6561;SDS011;3314;50.890;4.722;2023-03-14T09:09:54;6.7;;;1.0;;
6561;SDS011;3314;50.890;4.722;2023-03-14T09:11:54;5.8;;;1.0;;
6561;SDS011;3314;50.890;4.722;2023-03-14T09:13:54;7.4;;;1.2;;
6561;SDS011;3314;50.890;4.722;2023-03-14T09:15:54;6.7;;;1.3;;
6561;SDS011;3314;50.890;4.722;2023-03-14T09:17:54;9.4;;;1.1;;
6561;SDS011;3314;50.890;4.722;2023-03-14T09:19:54;9.3;;;1.6;;
6561;SDS011;3314;50.890;4.722;2023-03-14T09:21:54;8.9;;;1.4;;
6561;SDS011;3314;50.890;4.722;2023-03-14T09:23:53;7.4;;;1.5;;
6561;SDS011;3314;50.890;4.722;2023-03-14T09:25:54;7.2;;;1.6;;
6561;SDS011;3314;50.890;4.722;2023-03-14T09:27:54;9.5;;;1.6;;
6561;SDS011;3314;50.890;4.722;2023-03-14T09:29:53;9.1;;;1.9;;
6561;SDS011;3314;50.890;4.722;2023-03-14T09:31:53;9.1;;;1.7;;
6561;SDS011;3314;50.890;4.722;2023-03-14T09:33:53;10.0;;;1.4;;
6561;SDS011;3314;50.890;4.722;2023-03-14T09:35:52;9.9;;;1.8;;
6561;SDS011;3314;50.890;4.722;2023-03-14T09:37:52;7.1;;;1.7;;
6561;SDS011;3314;50.890;4.722;2023-03-14T09:39:52;9.6;;;1.3;;
6561;SDS011;3314;50.890;4.722;2023-03-14T09:41:52;6.0;;;1.4;;
6561;SDS011;3314;50.890;4.722;2023-03-14T09:43:56;7.7;;;1.3;;
6561;SDS011;3314;50.890;4.722;2023-03-14T09:45:47;6.8;;;1.1;;
6561;SDS011;3314;50.890;4.722;2023-03-14T09:47:47;5.9;;;1.3;;
6561;SDS011;3314;50.890;4.722;2023-03-14T09:49:47;11.3;;;1.8;;
6561;SDS011;3314;50.890;4.722;2023-03-14T09:51:47;10.2;;;2.0;;
6561;SDS011;3314;50.890;4.722;2023-03-14T09:53:48;6.2;;;1.4;;
6561;SDS011;3314;50.890;4.722;2023-03-14T09:55:49;7.5;;;1.7;;
6561;SDS011;3314;50.890;4.722;2023-03-14T09:57:49;7.1;;;1.8;;
6561;SDS011;3314;50.890;4.722;2023-03-14T09:59:50;12.0;;;2.3;;
6561;SDS011;3314;50.890;4.722;2023-03-14T10:01:51;8.2;;;2.0;;
6561;SDS011;3314;50.890;4.722;2023-03-14T10:03:51;6.8;;;1.7;;
6561;SDS011;3314;50.890;4.722;2023-03-14T10:05:53;12.1;;;2.0;;
6561;SDS011;3314;50.890;4.722;2023-03-14T10:07:43;7.1;;;1.6;;
6561;SDS011;3314;50.890;4.722;2023-03-14T10:09:43;12.5;;;1.9;;
6561;SDS011;3314;50.890;4.722;2023-03-14T10:11:43;8.8;;;2.2;;
6561;SDS011;3314;50.890;4.722;2023-03-14T10:13:47;6.8;;;1.5;;
6561;SDS011;3314;50.890;4.722;2023-03-14T10:15:48;7.2;;;1.5;;
6561;SDS011;3314;50.890;4.722;2023-03-14T10:17:48;10.1;;;1.5;;
6561;SDS011;3314;50.890;4.722;2023-03-14T10:19:52;7.6;;;1.9;;
6561;SDS011;3314;50.890;4.722;2023-03-14T10:21:41;10.4;;;2.4;;
6561;SDS011;3314;50.890;4.722;2023-03-14T10:23:43;11.9;;;1.7;;
6561;SDS011;3314;50.890;4.722;2023-03-14T10:25:43;13.3;;;2.0;;
6561;SDS011;3314;50.890;4.722;2023-03-14T10:27:43;12.1;;;1.6;;
6561;SDS011;3314;50.890;4.722;2023-03-14T10:29:51;7.8;;;1.5;;
6561;SDS011;3314;50.890;4.722;2023-03-14T10:31:47;12.8;;;1.9;;
6561;SDS011;3314;50.890;4.722;2023-03-14T10:33:57;12.3;;;2.4;;
6561;SDS011;3314;50.890;4.722;2023-03-14T10:35:45;9.5;;;2.0;;
6561;SDS011;3314;50.890;4.722;2023-03-14T10:37:50;8.1;;;1.9;;
6561;SDS011;3314;50.890;4.722;2023-03-14T10:39:45;11.0;;;1.8;;
6561;SDS011;3314;50.890;4.722;2023-03-14T10:41:46;16.1;;;1.8;;
6561;SDS011;3314;50.890;4.722;2023-03-14T10:43:36;9.5;;;1.8;;
6561;SDS011;3314;50.890;4.722;2023-03-14T10:45:36;7.2;;;1.2;;
6561;SDS011;3314;50.890;4.722;2023-03-14T10:47:38;7.5;;;1.3;;
6561;SDS011;3314;50.890;4.722;2023-03-14T10:49:36;6.4;;;1.1;;
6561;SDS011;3314;50.890;4.722;2023-03-14T10:51:35;6.2;;;1.1;;
6561;SDS011;3314;50.890;4.722;2023-03-14T10:53:43;6.2;;;1.5;;
6561;SDS011;3314;50.890;4.722;2023-03-14T10:55:45;8.6;;;1.2;;
6561;SDS011;3314;50.890;4.722;2023-03-14T10:57:38;5.5;;;0.6;;
6561;SDS011;3314;50.890;4.722;2023-03-14T10:59:39;5.3;;;0.7;;
6561;SDS011;3314;50.890;4.722;2023-03-14T11:01:40;7.6;;;0.7;;
6561;SDS011;3314;50.890;4.722;2023-03-14T11:03:42;8.0;;;0.7;;
6561;SDS011;3314;50.890;4.722;2023-03-14T11:05:33;5.3;;;0.7;;
6561;SDS011;3314;50.890;4.722;2023-03-14T11:07:37;5.3;;;0.8;;
6561;SDS011;3314;50.890;4.722;2023-03-14T11:09:39;6.6;;;1.0;;
6561;SDS011;3314;50.890;4.722;2023-03-14T11:11:31;5.2;;;0.6;;
6561;SDS011;3314;50.890;4.722;2023-03-14T11:13:32;7.5;;;0.8;;
6561;SDS011;3314;50.890;4.722;2023-03-14T11:15:34;4.7;;;0.6;;
6561;SDS011;3314;50.890;4.722;2023-03-14T11:17:37;4.8;;;0.5;;
6561;SDS011;3314;50.890;4.722;2023-03-14T11:19:42;4.5;;;0.5;;
6561;SDS011;3314;50.890;4.722;2023-03-14T11:21:33;4.6;;;0.6;;
6561;SDS011;3314;50.890;4.722;2023-03-14T11:23:37;4.9;;;0.5;;
6561;SDS011;3314;50.890;4.722;2023-03-14T11:25:29;4.9;;;0.5;;
6561;SDS011;3314;50.890;4.722;2023-03-14T11:27:32;4.5;;;0.4;;
6561;SDS011;3314;50.890;4.722;2023-03-14T11:29:36;5.0;;;0.6;;
6561;SDS011;3314;50.890;4.722;2023-03-14T11:31:27;5.5;;;0.8;;
6561;SDS011;3314;50.890;4.722;2023-03-14T11:33:28;6.1;;;0.7;;
6561;SDS011;3314;50.890;4.722;2023-03-14T11:35:30;4.8;;;0.6;;
6561;SDS011;3314;50.890;4.722;2023-03-14T11:37:34;4.7;;;0.6;;
6561;SDS011;3314;50.890;4.722;2023-03-14T11:39:36;4.9;;;0.7;;
6561;SDS011;3314;50.890;4.722;2023-03-14T11:41:27;5.1;;;0.7;;
6561;SDS011;3314;50.890;4.722;2023-03-14T11:43:30;6.0;;;0.7;;
6561;SDS011;3314;50.890;4.722;2023-03-14T11:45:32;4.9;;;0.6;;
6561;SDS011;3314;50.890;4.722;2023-03-14T11:47:34;5.6;;;0.9;;
6561;SDS011;3314;50.890;4.722;2023-03-14T11:49:26;6.1;;;0.5;;
6561;SDS011;3314;50.890;4.722;2023-03-14T11:51:31;5.3;;;0.6;;
6561;SDS011;3314;50.890;4.722;2023-03-14T11:53:36;5.4;;;0.9;;
6561;SDS011;3314;50.890;4.722;2023-03-14T11:55:27;5.1;;;0.6;;
6561;SDS011;3314;50.890;4.722;2023-03-14T11:57:28;5.0;;;0.7;;
6561;SDS011;3314;50.890;4.722;2023-03-14T11:59:29;5.6;;;0.6;;
6561;SDS011;3314;50.890;4.722;2023-03-14T12:01:22;5.3;;;0.6;;
6561;SDS011;3314;50.890;4.722;2023-03-14T12:03:26;7.8;;;0.9;;
6561;SDS011;3314;50.890;4.722;2023-03-14T12:05:31;6.4;;;0.9;;
6561;SDS011;3314;50.890;4.722;2023-03-14T12:07:23;5.1;;;0.5;;
6561;SDS011;3314;50.890;4.722;2023-03-14T12:09:24;5.1;;;0.6;;
6561;SDS011;3314;50.890;4.722;2023-03-14T12:11:29;5.0;;;0.6;;
6561;SDS011;3314;50.890;4.722;2023-03-14T12:13:19;5.6;;;0.5;;
6561;SDS011;3314;50.890;4.722;2023-03-14T12:15:19;6.3;;;0.6;;
6561;SDS011;3314;50.890;4.722;2023-03-14T12:17:20;5.6;;;0.5;;
6561;SDS011;3314;50.890;4.722;2023-03-14T12:19:29;7.9;;;1.3;;
6561;SDS011;3314;50.890;4.722;2023-03-14T12:21:18;6.3;;;1.0;;
6561;SDS011;3314;50.890;4.722;2023-03-14T12:23:18;8.5;;;0.7;;
6561;SDS011;3314;50.890;4.722;2023-03-14T12:25:18;6.3;;;0.7;;
6561;SDS011;3314;50.890;4.722;2023-03-14T12:28:14;6.0;;;0.7;;
6561;SDS011;3314;50.890;4.722;2023-03-14T12:29:16;9.7;;;1.0;;
6561;SDS011;3314;50.890;4.722;2023-03-14T12:31:47;6.3;;;0.7;;
6561;SDS011;3314;50.890;4.722;2023-03-14T12:33:28;7.8;;;0.8;;
6561;SDS011;3314;50.890;4.722;2023-03-14T12:35:47;4.8;;;0.5;;
6561;SDS011;3314;50.890;4.722;2023-03-14T12:37:26;4.8;;;0.5;;
6561;SDS011;3314;50.890;4.722;2023-03-14T12:39:20;7.0;;;0.8;;
6561;SDS011;3314;50.890;4.722;2023-03-14T12:41:22;5.8;;;0.5;;
6561;SDS011;3314;50.890;4.722;2023-03-14T12:43:25;5.6;;;0.7;;
6561;SDS011;3314;50.890;4.722;2023-03-14T12:45:14;4.9;;;0.7;;
6561;SDS011;3314;50.890;4.722;2023-03-14T12:47:44;5.3;;;0.8;;